Accueil
METAR-TAF:

METAR-TAF

Aéroports :

Aéroport Riviera Airport

Albenga, Italie

latitude: 44-03N, longitude: 008-07E, altitude: 45 m

Observation

Le bulletin a été fait il y a 34 minutes, à 10:50 UTC
Vent 9 kt de est/nord-est, variant entre nord/nord-est et sud-est
Température 26°C
Humidité 61%
Pression 1014 hPa
Visibilité 10 km ou plus
Nuages épars à une hauteur de 2700 ft

METAR: LIMG 301050Z 07009KT 030V130 9999 SCT027 26/18 Q1014

Heure: 13:24 (11:24 UTC)

Prévision

Le bulletin a été fait il y a 5 heures et 9 minutes, à 06:15 UTC
Prévision valable du 30 à 07 UTC au 01 à 06 UTC
Vent 5 kt de direction variable
Visibilité 10 km ou plus
Quelques nuages à une hauteur de 2000 ft
Evoluant progressivement
du 30 à 10 UTC au 30 à 12 UTC
Vent 10 kt de est/sud-est

TAF: LIMG 300615Z 3007/0106 VRB05KT 9999 FEW020 BECMG 3010/3012 11010KT

Observations et prévisions météorologiques de plus de 4000 aéroports (messages METAR et TAF).

Les stations disponibles sont représentées par des disques jaunes et rouges sur la carte.

Passer la souris dessus pour voir le nom de la station.

Cliquer dessus pour voir les observations et prévisions météorologiques.

Pour changer de carte: cliquez sur les boutons verts avec une croix noire pour zoomer, sur le bouton vert avec un tiret pour effectuer un zoom arrière, ou sur les flèches vertes pour les cartes adjacentes.


METAR-TAF: